SBBE/BEL METAR and TAF weather

Enter ICAO airport designator
Station Type Date Time Source
SBBE METAR 2019/04/20 22:00 UTC NOAA

SBBE 202200Z 06005KT 9999 SCT015 BKN020 26/25 Q1011


Station Type Date Time Source
SBBE Decoded METAR 2019/04/20 22:00 UTC NOAA

Belem Aeroporto , Brazil (SBBE) 01-23S 048-29W 16M
Apr 20, 2019 - 06:00 PM EDT / 2019.04.20 2200 UTC
Wind: from the ENE (060 degrees) at 6 MPH (5 KT):0
Visibility: greater than 7 mile(s):0
Sky conditions: mostly cloudy
Temperature: 78 F (26 C)
Dew Point: 77 F (25 C)
Relative Humidity: 94%
Pressure (altimeter): 29.85 in. Hg (1011 hPa)
ob: SBBE 202200Z 06005KT 9999 SCT015 BKN020 26/25 Q1011
cycle: 22

Station Type Date Time Source
SBBE TAF 2019/04/20 18:54 UTC NOAA

TAF TAF SBBE 201600Z 2018/2118 03008KT 8000 SCT020 FEW025TCU TN25/2108Z T X29/2117Z PROB40
TEMPO 2018/2021 5000 TSRA BKN017 FEW025CB
BECMG 2021/2023 SCT 020 PROB40 2110/2112 BKN010
RMK PEO

Example: see airport list